Time;durP1;ratioP1;P1;durP2;ratioP2;P2;SDS_P1;SDS_P2;PMS_P1;PMS_P2;Temp;Humidity;BMP_temperature;BMP_pressure;BME280_temperature;BME280_humidity;BME280_pressure;Samples;Min_cycle;Max_cycle;Signal;HPM_P1;HPM_P2
2022/12/26 00:00:29;;;;;;;;;;;;;;;;;;5094416;28;1969;-40
2022/12/26 00:02:56;;;;;;;;;;;;;;;;;;5094140;28;1925;-40
2022/12/26 00:05:24;;;;;;;;;;;;;;;;;;5094092;28;1981;-39
2022/12/26 00:07:51;;;;;;;;;;;;;;;;;;5093853;28;1961;-40
2022/12/26 00:10:18;;;;;;;;;;;;;;;;;;5094030;28;2019;-39
2022/12/26 00:12:45;;;;;;;;;;;;;;;;;;5094253;28;1255;-40
2022/12/26 00:15:12;;;;;;;;;;;;;;;;;;5094031;28;1377;-40
2022/12/26 00:17:39;;;;;;;;;;;;;;;;;;5093522;28;2160;-39
2022/12/26 00:20:07;;;;;;;;;;;;;;;;;;5093803;28;2099;-40
2022/12/26 00:22:34;;;;;;;;;;;;;;;;;;5093856;28;1404;-40
2022/12/26 00:25:01;;;;;;;;;;;;;;;;;;5093952;28;2174;-39
2022/12/26 00:27:29;;;;;;;;;;;;;;;;;;5093659;28;1963;-40
2022/12/26 00:29:56;;;;;;;;;;;;;;;;;;5093629;28;1812;-39
2022/12/26 00:32:23;;;;;;;;;;;;;;;;;;5093600;28;2022;-39
2022/12/26 00:34:50;;;;;;;;;;;;;;;;;;5093627;28;2064;-39
2022/12/26 00:37:17;;;;;;;;;;;;;;;;;;5093402;28;1266;-39
2022/12/26 00:39:44;;;;;;;;;;;;;;;;;;5093371;28;2036;-39
2022/12/26 00:42:11;;;;;;;;;;;;;;;;;;5093535;28;2033;-39
2022/12/26 00:44:39;;;;;;;;;;;;;;;;;;5093202;28;2067;-39
2022/12/26 00:47:06;;;;;;;;;;;;;;;;;;5093340;28;2130;-40
2022/12/26 00:49:33;;;;;;;;;;;;;;;;;;5093373;28;2266;-40
2022/12/26 00:52:20;;;;;;;;;;;;;;;;;;5092826;28;2121;-40
2022/12/26 00:54:48;;;;;;;;;;;;;;;;;;5093136;28;1575;-40
2022/12/26 00:57:16;;;;;;;;;;;;;;;;;;5093102;28;1997;-40
2022/12/26 00:59:43;;;;;;;;;;;;;;;;;;5093181;28;2280;-39
2022/12/26 01:02:36;;;;;;;;;;;;;;;;;;5092880;28;1860;-40
2022/12/26 01:04:57;;;;;;;;;;;;;;;;;;5092886;28;1881;-40
2022/12/26 01:07:24;;;;;;;;;;;;;;;;;;5092935;28;2033;-39
2022/12/26 01:09:51;;;;;;;;;;;;;;;;;;5092529;28;1988;-40
2022/12/26 01:12:18;;;;;;;;;;;;;;;;;;5092939;28;2094;-40
2022/12/26 01:14:46;;;;;;;;;;;;;;;;;;5092813;28;1885;-39
2022/12/26 01:17:13;;;;;;;;;;;;;;;;;;5092744;28;1941;-40
2022/12/26 01:19:40;;;;;;;;;;;;;;;;;;5092365;28;2150;-40
2022/12/26 01:22:08;;;;;;;;;;;;;;;;;;5092625;28;1976;-39
2022/12/26 01:24:35;;;;;;;;;;;;;;;;;;5092982;28;1747;-40
2022/12/26 01:27:02;;;;;;;;;;;;;;;;;;5091598;28;1980;-40
2022/12/26 01:29:29;;;;;;;;;;;;;;;;;;5092708;28;2160;-40
2022/12/26 01:31:56;;;;;;;;;;;;;;;;;;5092370;28;1712;-40
2022/12/26 01:34:23;;;;;;;;;;;;;;;;;;5092249;28;2014;-40
2022/12/26 01:36:51;;;;;;;;;;;;;;;;;;5092311;28;1949;-40
2022/12/26 01:39:19;;;;;;;;;;;;;;;;;;5092325;28;2014;-40
2022/12/26 01:41:47;;;;;;;;;;;;;;;;;;5092002;28;2165;-37
2022/12/26 01:44:33;;;;;;;;;;;;;;;;;;5092334;28;1952;-40
2022/12/26 01:47:00;;;;;;;;;;;;;;;;;;5092014;28;2056;-40
2022/12/26 01:49:34;;;;;;;;;;;;;;;;;;5092024;28;2081;-40
2022/12/26 01:52:04;;;;;;;;;;;;;;;;;;5091976;28;1892;-40
2022/12/26 01:54:34;;;;;;;;;;;;;;;;;;5092138;28;2100;-39
2022/12/26 01:57:12;;;;;;;;;;;;;;;;;;5091876;28;1613;-40
2022/12/26 01:59:45;;;;;;;;;;;;;;;;;;5092310;28;2065;-38
2022/12/26 02:02:12;;;;;;;;;;;;;;;;;;5091977;28;2078;-39
2022/12/26 02:07:31;;;;;;;;;;;;;;;;;;5091790;28;2168;-39
2022/12/26 02:09:58;;;;;;;;;;;;;;;;;;5092059;28;1919;-40
2022/12/26 02:12:29;;;;;;;;;;;;;;;;;;5091426;28;1835;-40
2022/12/26 02:15:03;;;;;;;;;;;;;;;;;;5091510;28;1554;-40
2022/12/26 02:17:30;;;;;;;;;;;;;;;;;;5090168;28;2201;-40
2022/12/26 02:20:09;;;;;;;;;;;;;;;;;;5091486;28;1582;-39
2022/12/26 02:22:54;;;;;;;;;;;;;;;;;;5091280;28;2091;-40
2022/12/26 02:25:21;;;;;;;;;;;;;;;;;;5091367;28;1793;-40
2022/12/26 02:28:06;;;;;;;;;;;;;;;;;;5091296;28;2235;-39
2022/12/26 02:30:33;;;;;;;;;;;;;;;;;;5091264;28;1836;-40
2022/12/26 02:33:06;;;;;;;;;;;;;;;;;;5091335;28;1871;-40
2022/12/26 02:35:33;;;;;;;;;;;;;;;;;;5091389;28;1720;-37
2022/12/26 02:38:06;;;;;;;;;;;;;;;;;;5090387;28;1991;-39
2022/12/26 02:40:54;;;;;;;;;;;;;;;;;;5091376;28;1812;-40
2022/12/26 02:43:25;;;;;;;;;;;;;;;;;;5091146;28;1917;-40
2022/12/26 02:48:49;;;;;;;;;;;;;;;;;;5091056;28;1803;-40
2022/12/26 03:14:20;;;;;;;;;;;;;;;;;;5091303;28;2087;-40
2022/12/26 03:19:37;;;;;;;;;;;;;;;;;;5090526;28;1990;-40
2022/12/26 03:22:29;;;;;;;;;;;;;;;;;;5090927;28;2167;-41
2022/12/26 03:27:41;;;;;;;;;;;;;;;;;;5091064;28;2187;-38
2022/12/26 03:32:56;;;;;;;;;;;;;;;;;;5090911;28;1978;-39
2022/12/26 03:35:26;;;;;;;;;;;;;;;;;;5091129;28;1372;-40
2022/12/26 03:38:00;;;;;;;;;;;;;;;;;;5090805;28;2020;-40
2022/12/26 04:21:06;;;;;;;;;;;;;;;;;;5064200;28;1520;-41
2022/12/26 04:46:17;;;;;;;;;;;;;;;;;;5033425;28;1837;-40
2022/12/26 04:51:32;;;;;;;;;;;;;;;;;;5053056;28;1742;-39
2022/12/26 04:53:59;;;;;;;;;;;;;;;;;;5052850;28;2141;-40
2022/12/26 04:56:26;;;;;;;;;;;;;;;;;;5053022;28;1846;-40
2022/12/26 04:58:53;;;;;;;;;;;;;;;;;;5052819;28;1854;-40
2022/12/26 05:09:39;;;;;;;;;;;;;;;;;;5052870;28;1710;-40
2022/12/26 05:12:07;;;;;;;;;;;;;;;;;;5052640;28;1954;-40
2022/12/26 05:14:35;;;;;;;;;;;;;;;;;;5052604;28;2097;-40
2022/12/26 05:30:56;;;;;;;;;;;;;;;;;;5092275;28;2015;-40
2022/12/26 05:36:09;;;;;;;;;;;;;;;;;;5125161;27;1390;-40
2022/12/26 05:38:37;;;;;;;;;;;;;;;;;;5092274;28;2125;-39
2022/12/26 05:41:04;;;;;;;;;;;;;;;;;;5092196;28;2036;-41
2022/12/26 05:43:31;;;;;;;;;;;;;;;;;;5092193;28;1949;-40
2022/12/26 05:45:59;;;;;;;;;;;;;;;;;;5092279;28;1971;-40
2022/12/26 05:48:26;;;;;;;;;;;;;;;;;;5092159;28;2001;-40
2022/12/26 05:50:57;;;;;;;;;;;;;;;;;;5092355;28;2094;-40
2022/12/26 05:53:24;;;;;;;;;;;;;;;;;;5092327;28;2152;-40
2022/12/26 05:55:51;;;;;;;;;;;;;;;;;;5092055;28;1944;-39
2022/12/26 05:58:18;;;;;;;;;;;;;;;;;;5091995;28;1885;-40
2022/12/26 06:00:45;;;;;;;;;;;;;;;;;;5091892;28;1741;-39
2022/12/26 06:03:13;;;;;;;;;;;;;;;;;;5091862;28;1825;-41
2022/12/26 06:05:41;;;;;;;;;;;;;;;;;;5091753;28;1636;-40
2022/12/26 06:08:08;;;;;;;;;;;;;;;;;;5091560;28;1897;-40
2022/12/26 06:10:35;;;;;;;;;;;;;;;;;;5091720;28;2116;-40
2022/12/26 06:13:02;;;;;;;;;;;;;;;;;;5091739;28;2183;-40
2022/12/26 06:15:29;;;;;;;;;;;;;;;;;;5091539;28;1898;-40
2022/12/26 06:17:56;;;;;;;;;;;;;;;;;;5091906;28;2104;-40
2022/12/26 06:20:24;;;;;;;;;;;;;;;;;;5091589;28;2225;-40
2022/12/26 06:22:51;;;;;;;;;;;;;;;;;;5091632;28;1974;-40
2022/12/26 06:25:18;;;;;;;;;;;;;;;;;;5091655;28;1733;-40
2022/12/26 06:27:45;;;;;;;;;;;;;;;;;;5089630;28;2353;-40
2022/12/26 06:30:12;;;;;;;;;;;;;;;;;;5091553;28;1939;-41
2022/12/26 06:32:39;;;;;;;;;;;;;;;;;;5090110;28;2092;-40
2022/12/26 06:35:07;;;;;;;;;;;;;;;;;;5091664;28;2077;-40
2022/12/26 06:37:34;;;;;;;;;;;;;;;;;;5091283;28;2105;-40
2022/12/26 06:40:01;;;;;;;;;;;;;;;;;;5091390;28;1982;-39
2022/12/26 06:42:30;;;;;;;;;;;;;;;;;;5091318;28;1492;-40
2022/12/26 06:44:57;;;;;;;;;;;;;;;;;;5091524;28;2226;-40
2022/12/26 06:47:24;;;;;;;;;;;;;;;;;;5091459;28;2166;-40
2022/12/26 06:49:51;;;;;;;;;;;;;;;;;;5091238;28;1826;-40
2022/12/26 06:52:18;;;;;;;;;;;;;;;;;;5091256;28;2076;-43
2022/12/26 06:54:46;;;;;;;;;;;;;;;;;;5091225;28;1864;-40
2022/12/26 06:57:13;;;;;;;;;;;;;;;;;;5091387;28;1543;-40
2022/12/26 06:59:40;;;;;;;;;;;;;;;;;;5091197;28;2209;-40
2022/12/26 07:02:08;;;;;;;;;;;;;;;;;;5091064;28;1870;-40
2022/12/26 07:04:35;;;;;;;;;;;;;;;;;;5089887;28;1577;-40
2022/12/26 07:07:03;;;;;;;;;;;;;;;;;;5090964;28;2035;-40
2022/12/26 07:09:30;;;;;;;;;;;;;;;;;;5087308;28;1974;-40
2022/12/26 07:11:59;;;;;;;;;;;;;;;;;;5090788;28;1874;-40
2022/12/26 07:14:27;;;;;;;;;;;;;;;;;;5092459;28;9736;-40
2022/12/26 07:16:54;;;;;;;;;;;;;;;;;;5091215;28;2032;-40
2022/12/26 07:19:21;;;;;;;;;;;;;;;;;;5090762;28;2072;-40
2022/12/26 07:21:48;;;;;;;;;;;;;;;;;;5090981;28;1942;-40
2022/12/26 07:24:16;;;;;;;;;;;;;;;;;;5091216;28;1932;-40
2022/12/26 07:26:44;;;;;;;;;;;;;;;;;;5093747;28;1739;-40
2022/12/26 07:29:11;;;;;;;;;;;;;;;;;;5094805;28;1890;-40
2022/12/26 07:31:39;;;;;;;;;;;;;;;;;;5094649;28;2341;-40
2022/12/26 07:34:06;;;;;;;;;;;;;;;;;;5094474;28;1444;-40
2022/12/26 07:36:34;;;;;;;;;;;;;;;;;;5094828;28;1982;-40
2022/12/26 07:39:01;;;;;;;;;;;;;;;;;;5094806;28;2137;-40
2022/12/26 07:44:14;;;;;;;;;;;;;;;;;;5094447;28;2243;-40
2022/12/26 07:46:41;;;;;;;;;;;;;;;;;;5094797;28;1965;-40
2022/12/26 07:49:11;;;;;;;;;;;;;;;;;;5094295;28;2230;-41
2022/12/26 07:51:38;;;;;;;;;;;;;;;;;;5094532;28;1756;-39
2022/12/26 07:54:05;;;;;;;;;;;;;;;;;;5092935;28;2145;-40
2022/12/26 07:56:37;;;;;;;;;;;;;;;;;;5094058;28;1623;-40
2022/12/26 07:59:04;;;;;;;;;;;;;;;;;;5094207;28;1821;-40
2022/12/26 08:01:31;;;;;;;;;;;;;;;;;;5094389;28;2095;-40
2022/12/26 08:03:59;;;;;;;;;;;;;;;;;;5093792;28;2024;-40
2022/12/26 08:06:26;;;;;;;;;;;;;;;;;;5094179;28;1734;-40
2022/12/26 08:08:53;;;;;;;;;;;;;;;;;;5093133;28;2179;-40
2022/12/26 08:11:22;;;;;;;;;;;;;;;;;;5094441;28;1615;-40
2022/12/26 08:13:50;;;;;;;;;;;;;;;;;;5093707;28;2069;-39
2022/12/26 08:16:18;;;;;;;;;;;;;;;;;;5093989;28;2039;-40
2022/12/26 08:18:45;;;;;;;;;;;;;;;;;;5093716;28;1887;-40
2022/12/26 08:21:12;;;;;;;;;;;;;;;;;;5094209;28;2123;-38
2022/12/26 08:23:39;;;;;;;;;;;;;;;;;;5094006;28;2285;-40
2022/12/26 08:26:08;;;;;;;;;;;;;;;;;;5092671;28;1972;-40
2022/12/26 08:28:35;;;;;;;;;;;;;;;;;;5093832;28;1978;-40
2022/12/26 08:31:06;;;;;;;;;;;;;;;;;;5093857;28;1404;-40
2022/12/26 08:33:33;;;;;;;;;;;;;;;;;;5092644;28;2025;-40
2022/12/26 08:36:02;;;;;;;;;;;;;;;;;;5091661;28;1742;-39
2022/12/26 08:38:29;;;;;;;;;;;;;;;;;;5093422;28;2015;-39
2022/12/26 08:40:57;;;;;;;;;;;;;;;;;;5092760;28;1865;-39
2022/12/26 08:43:25;;;;;;;;;;;;;;;;;;5091451;28;1763;-40
2022/12/26 08:46:12;;;;;;;;;;;;;;;;;;5092757;28;1550;-39
2022/12/26 08:48:40;;;;;;;;;;;;;;;;;;5093065;28;1973;-39
2022/12/26 08:51:08;;;;;;;;;;;;;;;;;;5093364;28;1984;-40
2022/12/26 08:53:36;;;;;;;;;;;;;;;;;;5093585;28;1978;-40
2022/12/26 08:56:05;;;;;;;;;;;;;;;;;;5092330;28;2163;-39
2022/12/26 08:58:33;;;;;;;;;;;;;;;;;;5093320;28;1859;-40
2022/12/26 09:01:08;;;;;;;;;;;;;;;;;;5093144;28;1897;-39
2022/12/26 09:03:35;;;;;;;;;;;;;;;;;;5092410;28;1991;-40
2022/12/26 09:06:03;;;;;;;;;;;;;;;;;;5093124;28;1453;-40
2022/12/26 09:08:35;;;;;;;;;;;;;;;;;;5092326;28;1975;-40
2022/12/26 09:11:04;;;;;;;;;;;;;;;;;;5093063;28;2206;-40
2022/12/26 09:13:32;;;;;;;;;;;;;;;;;;5092800;28;2080;-40
2022/12/26 09:16:09;;;;;;;;;;;;;;;;;;5092197;28;1824;-40
2022/12/26 09:18:36;;;;;;;;;;;;;;;;;;5092917;28;1807;-39
2022/12/26 09:21:04;;;;;;;;;;;;;;;;;;5092255;28;1893;-40
2022/12/26 09:23:31;;;;;;;;;;;;;;;;;;5092788;28;2132;-39
2022/12/26 09:26:09;;;;;;;;;;;;;;;;;;5091719;28;2025;-40
2022/12/26 09:28:36;;;;;;;;;;;;;;;;;;5092607;28;1928;-39
2022/12/26 09:31:04;;;;;;;;;;;;;;;;;;5092552;28;2227;-40
2022/12/26 09:33:32;;;;;;;;;;;;;;;;;;5092354;28;1777;-40
2022/12/26 09:35:59;;;;;;;;;;;;;;;;;;5090455;28;1966;-40
2022/12/26 09:38:30;;;;;;;;;;;;;;;;;;5092463;28;2032;-40
2022/12/26 09:41:09;;;;;;;;;;;;;;;;;;5091481;28;2018;-39
2022/12/26 09:43:47;;;;;;;;;;;;;;;;;;5107902;28;2131;-40
2022/12/26 09:46:22;;;;;;;;;;;;;;;;;;5091451;28;1791;-40
2022/12/26 09:48:49;;;;;;;;;;;;;;;;;;5091089;28;1979;-40
2022/12/26 09:51:16;;;;;;;;;;;;;;;;;;5091917;28;1519;-39
2022/12/26 09:53:46;;;;;;;;;;;;;;;;;;5091200;28;2004;-40
2022/12/26 09:56:15;;;;;;;;;;;;;;;;;;5092110;28;1819;-39
2022/12/26 09:59:06;;;;;;;;;;;;;;;;;;5092035;28;2216;-40
2022/12/26 10:01:35;;;;;;;;;;;;;;;;;;5091967;28;1569;-40
2022/12/26 10:04:34;;;;;;;;;;;;;;;;;;5091910;28;2020;-40
2022/12/26 10:07:16;;;;;;;;;;;;;;;;;;5090643;28;2066;-41
2022/12/26 10:09:49;;;;;;;;;;;;;;;;;;5091904;28;2021;-40
2022/12/26 10:12:33;;;;;;;;;;;;;;;;;;5091610;28;2122;-40
2022/12/26 10:15:13;;;;;;;;;;;;;;;;;;5091642;28;1886;-39
2022/12/26 10:17:50;;;;;;;;;;;;;;;;;;5091862;28;2161;-40
2022/12/26 10:20:33;;;;;;;;;;;;;;;;;;5090808;28;1309;-40
2022/12/26 10:23:20;;;;;;;;;;;;;;;;;;5091732;28;1963;-39
2022/12/26 10:25:51;;;;;;;;;;;;;;;;;;5091703;28;2004;-39
2022/12/26 10:28:41;;;;;;;;;;;;;;;;;;5090517;28;1904;-39
2022/12/26 10:31:21;;;;;;;;;;;;;;;;;;5086230;28;1884;-40
2022/12/26 10:33:57;;;;;;;;;;;;;;;;;;5090061;28;1488;-39
2022/12/26 10:36:29;;;;;;;;;;;;;;;;;;5091265;28;2110;-40
2022/12/26 10:38:58;;;;;;;;;;;;;;;;;;5091179;28;1887;-39
2022/12/26 10:41:26;;;;;;;;;;;;;;;;;;5090400;28;1966;-39
2022/12/26 10:43:53;;;;;;;;;;;;;;;;;;5091279;28;1871;-40
2022/12/26 10:46:39;;;;;;;;;;;;;;;;;;5091331;28;1981;-39
2022/12/26 10:49:10;;;;;;;;;;;;;;;;;;5091146;28;2024;-40
2022/12/26 10:51:38;;;;;;;;;;;;;;;;;;5090391;28;1511;-39
2022/12/26 10:54:16;;;;;;;;;;;;;;;;;;5089979;28;2091;-40
2022/12/26 10:56:45;;;;;;;;;;;;;;;;;;5090631;28;1888;-39
2022/12/26 10:59:14;;;;;;;;;;;;;;;;;;5091688;28;1849;-40
2022/12/26 11:01:46;;;;;;;;;;;;;;;;;;5094962;28;2003;-40
2022/12/26 11:04:15;;;;;;;;;;;;;;;;;;5095331;28;1766;-40
2022/12/26 11:06:46;;;;;;;;;;;;;;;;;;5095287;28;1783;-39
2022/12/26 11:09:31;;;;;;;;;;;;;;;;;;5095501;28;1967;-39
2022/12/26 11:11:59;;;;;;;;;;;;;;;;;;5074968;28;1840;-39
2022/12/26 11:14:29;;;;;;;;;;;;;;;;;;5075032;28;1957;-40
2022/12/26 11:17:01;;;;;;;;;;;;;;;;;;5074467;28;1813;-40
2022/12/26 11:19:30;;;;;;;;;;;;;;;;;;5074666;28;2153;-40
2022/12/26 11:22:12;;;;;;;;;;;;;;;;;;5092159;28;2107;-39
2022/12/26 11:24:40;;;;;;;;;;;;;;;;;;5094358;28;1924;-39
2022/12/26 11:27:17;;;;;;;;;;;;;;;;;;5094923;28;1737;-40
2022/12/26 11:29:45;;;;;;;;;;;;;;;;;;5094734;28;2137;-39
2022/12/26 11:32:17;;;;;;;;;;;;;;;;;;5094481;28;2387;-39
2022/12/26 11:34:46;;;;;;;;;;;;;;;;;;5110565;28;1710;-39
2022/12/26 11:37:48;;;;;;;;;;;;;;;;;;5094872;28;2028;-41
2022/12/26 11:40:22;;;;;;;;;;;;;;;;;;5092550;28;1955;-39
2022/12/26 11:42:54;;;;;;;;;;;;;;;;;;5094164;28;1854;-40
2022/12/26 11:45:23;;;;;;;;;;;;;;;;;;5093938;28;2065;-40
2022/12/26 11:47:52;;;;;;;;;;;;;;;;;;5110281;28;2458;-39
2022/12/26 11:50:20;;;;;;;;;;;;;;;;;;5094328;28;2045;-40
2022/12/26 11:52:52;;;;;;;;;;;;;;;;;;5094217;28;1464;-40
2022/12/26 11:55:23;;;;;;;;;;;;;;;;;;5094345;28;2036;-40
2022/12/26 11:57:59;;;;;;;;;;;;;;;;;;5093829;28;2023;-39
2022/12/26 12:00:26;;;;;;;;;;;;;;;;;;5093944;28;1961;-39
2022/12/26 12:02:53;;;;;;;;;;;;;;;;;;5094162;28;2005;-40
2022/12/26 12:05:22;;;;;;;;;;;;;;;;;;5093702;28;1738;-39
2022/12/26 12:07:52;;;;;;;;;;;;;;;;;;5093635;28;2185;-40
2022/12/26 12:10:46;;;;;;;;;;;;;;;;;;5093946;28;2067;-40
2022/12/26 12:13:25;;;;;;;;;;;;;;;;;;5093389;28;1889;-39
2022/12/26 12:16:22;;;;;;;;;;;;;;;;;;5094188;28;2071;-39
2022/12/26 12:18:49;;;;;;;;;;;;;;;;;;5085062;28;2050;-39
2022/12/26 12:21:37;;;;;;;;;;;;;;;;;;5092966;28;2047;-40
2022/12/26 12:24:07;;;;;;;;;;;;;;;;;;5092904;28;2054;-40
2022/12/26 12:26:41;;;;;;;;;;;;;;;;;;5092602;28;1911;-40
2022/12/26 12:29:27;;;;;;;;;;;;;;;;;;5093484;28;1978;-40
2022/12/26 12:32:17;;;;;;;;;;;;;;;;;;5093556;28;1582;-40
2022/12/26 12:34:47;;;;;;;;;;;;;;;;;;5093784;28;2131;-40
2022/12/26 12:37:40;;;;;;;;;;;;;;;;;;5093618;28;2043;-41
2022/12/26 12:40:23;;;;;;;;;;;;;;;;;;5093412;28;1359;-40
2022/12/26 12:43:10;;;;;;;;;;;;;;;;;;5093561;28;1843;-40
2022/12/26 12:45:45;;;;;;;;;;;;;;;;;;5086405;28;1958;-40
2022/12/26 12:48:25;;;;;;;;;;;;;;;;;;5092684;28;1761;-40
2022/12/26 12:50:55;;;;;;;;;;;;;;;;;;5093104;28;1915;-40
2022/12/26 12:53:34;;;;;;;;;;;;;;;;;;5092391;28;2115;-40
2022/12/26 12:56:40;;;;;;;;;;;;;;;;;;5093175;28;1985;-39
2022/12/26 12:59:14;;;;;;;;;;;;;;;;;;5050606;28;2376;-39
2022/12/26 13:01:45;;;;;;;;;;;;;;;;;;5049825;28;2291;-40
2022/12/26 13:04:24;;;;;;;;;;;;;;;;;;5074597;28;1027;-40
2022/12/26 13:06:54;;;;;;;;;;;;;;;;;;5054870;28;1769;-40
2022/12/26 13:09:32;;;;;;;;;;;;;;;;;;5087978;28;2010;-39
2022/12/26 13:12:12;;;;;;;;;;;;;;;;;;5092839;28;1922;-40
2022/12/26 13:14:41;;;;;;;;;;;;;;;;;;5092139;28;1693;-39
2022/12/26 13:17:10;;;;;;;;;;;;;;;;;;5092909;28;2262;-40
2022/12/26 13:19:45;;;;;;;;;;;;;;;;;;5091717;28;1997;-40
2022/12/26 13:25:26;;;;;;;;;;;;;;;;;;5092796;28;1826;-40
2022/12/26 13:27:55;;;;;;;;;;;;;;;;;;5071790;28;1488;-39
2022/12/26 13:30:22;;;;;;;;;;;;;;;;;;5071092;28;1901;-40
2022/12/26 13:32:54;;;;;;;;;;;;;;;;;;5076331;28;1750;-39
2022/12/26 13:35:40;;;;;;;;;;;;;;;;;;5092778;28;1864;-39
2022/12/26 13:38:07;;;;;;;;;;;;;;;;;;5092367;28;1873;-39
2022/12/26 13:40:34;;;;;;;;;;;;;;;;;;5092356;28;1936;-40
2022/12/26 13:45:55;;;;;;;;;;;;;;;;;;5092480;28;1823;-39
2022/12/26 13:48:26;;;;;;;;;;;;;;;;;;5091634;28;1828;-39
2022/12/26 13:50:59;;;;;;;;;;;;;;;;;;5092135;28;1906;-41
2022/12/26 13:53:30;;;;;;;;;;;;;;;;;;5092061;28;1786;-40
2022/12/26 13:56:01;;;;;;;;;;;;;;;;;;5091395;28;2040;-40
2022/12/26 13:58:34;;;;;;;;;;;;;;;;;;5092027;28;1758;-39
2022/12/26 14:01:21;;;;;;;;;;;;;;;;;;5091788;28;2002;-40
2022/12/26 14:04:20;;;;;;;;;;;;;;;;;;5091943;28;1992;-40
2022/12/26 14:07:03;;;;;;;;;;;;;;;;;;5068250;28;1698;-39
2022/12/26 14:09:46;;;;;;;;;;;;;;;;;;5091362;28;1991;-40
2022/12/26 14:12:37;;;;;;;;;;;;;;;;;;5090899;28;1903;-40
2022/12/26 14:15:07;;;;;;;;;;;;;;;;;;5091566;28;1784;-39
2022/12/26 14:17:45;;;;;;;;;;;;;;;;;;5091145;28;1791;-41
2022/12/26 14:20:31;;;;;;;;;;;;;;;;;;5089251;28;1901;-40
2022/12/26 14:23:05;;;;;;;;;;;;;;;;;;5091275;28;1770;-39
2022/12/26 14:25:32;;;;;;;;;;;;;;;;;;5091428;28;2083;-40
2022/12/26 14:28:08;;;;;;;;;;;;;;;;;;5107192;28;1875;-40
2022/12/26 14:30:55;;;;;;;;;;;;;;;;;;5090532;28;2107;-40
2022/12/26 14:33:23;;;;;;;;;;;;;;;;;;5090470;28;1707;-40
2022/12/26 14:35:56;;;;;;;;;;;;;;;;;;5090861;28;2090;-39
2022/12/26 14:38:29;;;;;;;;;;;;;;;;;;5091731;28;1980;-40
2022/12/26 14:41:01;;;;;;;;;;;;;;;;;;5090106;28;2116;-39
2022/12/26 14:43:46;;;;;;;;;;;;;;;;;;5091076;28;2193;-39
2022/12/26 14:46:31;;;;;;;;;;;;;;;;;;5090045;28;2143;-40
2022/12/26 14:48:59;;;;;;;;;;;;;;;;;;5091371;28;2124;-39
2022/12/26 14:51:28;;;;;;;;;;;;;;;;;;5091185;28;2004;-40
2022/12/26 14:54:15;;;;;;;;;;;;;;;;;;5091373;28;1885;-39
2022/12/26 14:56:43;;;;;;;;;;;;;;;;;;5090813;28;1959;-39
2022/12/26 14:59:25;;;;;;;;;;;;;;;;;;5090586;28;2079;-39
2022/12/26 15:02:27;;;;;;;;;;;;;;;;;;5090343;28;1286;-39
2022/12/26 15:05:00;;;;;;;;;;;;;;;;;;5090974;28;1841;-39
2022/12/26 15:07:46;;;;;;;;;;;;;;;;;;5091096;28;1839;-40
2022/12/26 15:10:20;;;;;;;;;;;;;;;;;;5090936;28;2146;-40
2022/12/26 15:13:16;;;;;;;;;;;;;;;;;;5091001;28;2141;-40
2022/12/26 15:15:53;;;;;;;;;;;;;;;;;;5090717;28;1913;-40
2022/12/26 15:18:23;;;;;;;;;;;;;;;;;;5089599;28;1447;-40
2022/12/26 15:21:07;;;;;;;;;;;;;;;;;;5090010;28;1889;-39
2022/12/26 15:23:41;;;;;;;;;;;;;;;;;;5090406;28;2097;-39
2022/12/26 15:26:15;;;;;;;;;;;;;;;;;;5090920;28;2111;-40
2022/12/26 15:28:51;;;;;;;;;;;;;;;;;;5090738;28;1973;-39
2022/12/26 15:31:20;;;;;;;;;;;;;;;;;;5090611;28;1987;-40
2022/12/26 15:33:50;;;;;;;;;;;;;;;;;;5090840;28;1944;-39
2022/12/26 15:36:25;;;;;;;;;;;;;;;;;;5090832;28;1931;-39
2022/12/26 15:39:15;;;;;;;;;;;;;;;;;;5090091;28;1424;-39
2022/12/26 15:41:47;;;;;;;;;;;;;;;;;;5106506;28;1898;-39
2022/12/26 15:44:19;;;;;;;;;;;;;;;;;;5090677;28;2378;-39
2022/12/26 15:47:05;;;;;;;;;;;;;;;;;;5093600;28;2010;-39
2022/12/26 15:49:44;;;;;;;;;;;;;;;;;;5093716;28;2065;-39
2022/12/26 15:52:14;;;;;;;;;;;;;;;;;;5094493;28;2088;-39
2022/12/26 15:54:54;;;;;;;;;;;;;;;;;;5094793;28;2323;-40
2022/12/26 15:57:30;;;;;;;;;;;;;;;;;;5093720;28;2029;-40
2022/12/26 16:00:14;;;;;;;;;;;;;;;;;;5094095;28;2084;-39
2022/12/26 16:02:47;;;;;;;;;;;;;;;;;;5094298;28;1923;-39
2022/12/26 16:05:33;;;;;;;;;;;;;;;;;;5094109;28;1959;-39
2022/12/26 16:08:09;;;;;;;;;;;;;;;;;;5094168;28;1965;-39
2022/12/26 16:10:37;;;;;;;;;;;;;;;;;;5093864;28;2146;-40
2022/12/26 16:13:21;;;;;;;;;;;;;;;;;;5094058;28;1702;-40
2022/12/26 16:15:55;;;;;;;;;;;;;;;;;;5093960;28;2017;-39
2022/12/26 16:18:29;;;;;;;;;;;;;;;;;;5092237;28;1452;-40
2022/12/26 16:23:51;;;;;;;;;;;;;;;;;;5093690;28;2172;-39
2022/12/26 16:26:24;;;;;;;;;;;;;;;;;;5093733;28;1955;-39
2022/12/26 16:28:52;;;;;;;;;;;;;;;;;;5093850;28;1933;-40
2022/12/26 16:31:20;;;;;;;;;;;;;;;;;;5093196;28;1980;-39
2022/12/26 16:33:49;;;;;;;;;;;;;;;;;;5093614;28;1997;-39
2022/12/26 16:36:26;;;;;;;;;;;;;;;;;;5093588;28;1750;-39
2022/12/26 16:38:54;;;;;;;;;;;;;;;;;;5093705;28;2045;-39
2022/12/26 16:41:23;;;;;;;;;;;;;;;;;;5093334;28;1828;-39
2022/12/26 16:43:53;;;;;;;;;;;;;;;;;;5093460;28;1989;-39
2022/12/26 16:46:25;;;;;;;;;;;;;;;;;;5093085;28;1851;-39
2022/12/26 16:49:01;;;;;;;;;;;;;;;;;;5093048;28;1875;-40
2022/12/26 16:51:42;;;;;;;;;;;;;;;;;;5093379;28;1940;-39
2022/12/26 16:54:14;;;;;;;;;;;;;;;;;;5093198;28;2073;-39
2022/12/26 16:56:41;;;;;;;;;;;;;;;;;;5092306;28;2104;-39
2022/12/26 16:59:13;;;;;;;;;;;;;;;;;;5092700;28;2224;-40
2022/12/26 17:02:09;;;;;;;;;;;;;;;;;;5092363;28;1993;-39
2022/12/26 17:04:37;;;;;;;;;;;;;;;;;;5091028;28;1935;-39
2022/12/26 17:07:05;;;;;;;;;;;;;;;;;;5093246;28;2006;-39
2022/12/26 17:09:43;;;;;;;;;;;;;;;;;;5092542;28;1914;-40
2022/12/26 17:12:27;;;;;;;;;;;;;;;;;;5091340;28;1991;-39
2022/12/26 17:14:56;;;;;;;;;;;;;;;;;;5092716;28;1931;-39
2022/12/26 17:17:24;;;;;;;;;;;;;;;;;;5091408;28;2531;-39
2022/12/26 17:19:53;;;;;;;;;;;;;;;;;;5092735;28;1953;-39
2022/12/26 17:22:26;;;;;;;;;;;;;;;;;;5092861;28;1934;-39
2022/12/26 17:25:20;;;;;;;;;;;;;;;;;;5092351;28;2166;-39
2022/12/26 17:28:07;;;;;;;;;;;;;;;;;;5092261;28;1912;-39
2022/12/26 17:30:44;;;;;;;;;;;;;;;;;;5092639;28;1936;-39
2022/12/26 17:33:12;;;;;;;;;;;;;;;;;;5092496;28;2196;-40
2022/12/26 17:35:39;;;;;;;;;;;;;;;;;;5092432;28;1895;-39
2022/12/26 17:38:27;;;;;;;;;;;;;;;;;;5055554;28;10370;-40
2022/12/26 17:40:55;;;;;;;;;;;;;;;;;;5070210;28;5568;-39
2022/12/26 17:43:22;;;;;;;;;;;;;;;;;;5092363;28;2005;-39
2022/12/26 17:45:50;;;;;;;;;;;;;;;;;;5091148;28;1652;-39
2022/12/26 17:48:17;;;;;;;;;;;;;;;;;;5105921;28;2015;-39
2022/12/26 17:50:46;;;;;;;;;;;;;;;;;;5090268;28;1987;-39
2022/12/26 17:53:25;;;;;;;;;;;;;;;;;;5090267;28;2075;-40
2022/12/26 17:55:54;;;;;;;;;;;;;;;;;;5090128;28;1646;-39
2022/12/26 17:58:21;;;;;;;;;;;;;;;;;;5090129;28;1340;-40
2022/12/26 18:00:49;;;;;;;;;;;;;;;;;;5089964;28;1881;-39
2022/12/26 18:03:16;;;;;;;;;;;;;;;;;;5091613;28;1986;-41
2022/12/26 18:05:44;;;;;;;;;;;;;;;;;;5092051;28;2116;-41
2022/12/26 18:08:40;;;;;;;;;;;;;;;;;;5091197;28;2010;-40
2022/12/26 18:11:10;;;;;;;;;;;;;;;;;;5082876;28;1898;-39
2022/12/26 18:13:37;;;;;;;;;;;;;;;;;;5091848;28;1940;-38
2022/12/26 18:16:07;;;;;;;;;;;;;;;;;;5090663;28;2040;-39
2022/12/26 18:18:35;;;;;;;;;;;;;;;;;;5091831;28;2100;-39
2022/12/26 18:21:04;;;;;;;;;;;;;;;;;;5091483;28;1829;-39
2022/12/26 18:23:31;;;;;;;;;;;;;;;;;;5090574;28;2016;-39
2022/12/26 18:26:00;;;;;;;;;;;;;;;;;;5091643;28;2042;-39
2022/12/26 18:28:28;;;;;;;;;;;;;;;;;;5090372;28;2236;-40
2022/12/26 18:30:56;;;;;;;;;;;;;;;;;;5106390;28;2533;-37
2022/12/26 18:33:25;;;;;;;;;;;;;;;;;;5091636;28;1957;-38
2022/12/26 18:36:13;;;;;;;;;;;;;;;;;;5091164;28;1829;-37
2022/12/26 18:38:48;;;;;;;;;;;;;;;;;;5091373;28;2061;-39
2022/12/26 18:41:22;;;;;;;;;;;;;;;;;;5091338;28;1847;-37
2022/12/26 18:43:54;;;;;;;;;;;;;;;;;;5090481;28;2014;-38
2022/12/26 18:46:22;;;;;;;;;;;;;;;;;;5091165;28;2163;-39
2022/12/26 18:48:52;;;;;;;;;;;;;;;;;;5091305;28;1697;-39
2022/12/26 18:51:35;;;;;;;;;;;;;;;;;;5090375;28;1998;-38
2022/12/26 18:54:15;;;;;;;;;;;;;;;;;;5091106;28;2052;-37
2022/12/26 18:56:43;;;;;;;;;;;;;;;;;;5091243;28;2087;-39
2022/12/26 18:59:28;;;;;;;;;;;;;;;;;;5090910;28;2093;-37
2022/12/26 19:02:19;;;;;;;;;;;;;;;;;;5090671;28;1740;-38
2022/12/26 19:04:58;;;;;;;;;;;;;;;;;;5091140;28;2119;-39
2022/12/26 19:07:25;;;;;;;;;;;;;;;;;;5090935;28;2191;-41
2022/12/26 19:09:58;;;;;;;;;;;;;;;;;;5091030;28;1997;-37
2022/12/26 19:12:25;;;;;;;;;;;;;;;;;;5106614;28;2351;-39
2022/12/26 19:14:58;;;;;;;;;;;;;;;;;;5090995;28;1830;-37
2022/12/26 19:17:42;;;;;;;;;;;;;;;;;;5091131;28;1985;-38
2022/12/26 19:20:26;;;;;;;;;;;;;;;;;;5090566;28;1932;-37
2022/12/26 19:23:27;;;;;;;;;;;;;;;;;;5075772;28;2494;-39
2022/12/26 19:30:45;;;;;;;;;;;;;;;;;;5054446;28;1993;-39
2022/12/26 19:34:14;;;;;;;;;;;;;;;;;;5069099;28;1821;-38
2022/12/26 19:36:50;;;;;;;;;;;;;;;;;;5074509;28;1866;-38
2022/12/26 19:39:52;;;;;;;;;;;;;;;;;;5054571;28;2288;-39
2022/12/26 19:42:49;;;;;;;;;;;;;;;;;;5054071;28;1963;-37
2022/12/26 19:46:17;;;;;;;;;;;;;;;;;;5056083;28;1931;-37
2022/12/26 19:49:53;;;;;;;;;;;;;;;;;;5074354;28;2050;-38
2022/12/26 19:52:21;;;;;;;;;;;;;;;;;;5074090;28;1999;-39
2022/12/26 19:54:48;;;;;;;;;;;;;;;;;;5074111;28;1940;-39
2022/12/26 19:57:15;;;;;;;;;;;;;;;;;;5074322;28;1796;-39
2022/12/26 19:59:43;;;;;;;;;;;;;;;;;;5074087;28;1630;-39
2022/12/26 20:02:11;;;;;;;;;;;;;;;;;;5074272;28;2103;-40
2022/12/26 20:04:38;;;;;;;;;;;;;;;;;;5073986;28;1844;-38
2022/12/26 20:07:05;;;;;;;;;;;;;;;;;;5073733;28;2118;-39